Peotone Weather
Peotone-Weather Station Historical Data
Daily Summary for October 12, 2019 Units:  English    Metric   Both
Daily Weekly Monthly Yearly Custom
  High: Low: Average:
Temperature: 54.8 °F 32.1 °F 44 °F
Dew Point: 34.3 °F 25.9 °F 29 °F
Humidity: 78.3% 36.7% 57%
Wind Speed: 17.4mph 1.8mph 10.3mph
Wind Gust: 35.7mph - -
Wind- - SSW
Pressure: 30.10 in 29.88 in -
Precipitation: 0.00 in    
Historical Graphs
 
 
Tabular Data for October 12, 2019
Time Temperature Dew Point Pressure Wind Wind Speed Wind Gust Humidity Rainfall Rate (Hourly) solar
00:04 39.2 °F 29.6 °F 30.09 in SW 7.7 mph 12.6 mph 68% 0.00 in 0 W/m2
00:09 39.2 °F 29.5 °F 30.09 in WSW 7.5 mph 12.6 mph 68% 0.00 in 0 W/m2
00:14 39.1 °F 29.3 °F 30.09 in WSW 8.8 mph 14.9 mph 67.6% 0.00 in 0 W/m2
00:19 39.1 °F 29.1 °F 30.09 in WSW 8.7 mph 14.9 mph 67% 0.00 in 0 W/m2
00:24 39.1 °F 29.1 °F 30.09 in WSW 6.9 mph 13.8 mph 67% 0.00 in 0 W/m2
00:29 39 °F 29 °F 30.09 in WSW 7.2 mph 13.8 mph 66.8% 0.00 in 0 W/m2
00:34 38.9 °F 28.7 °F 30.09 in WSW 7.1 mph 13.8 mph 66.7% 0.00 in 0 W/m2
00:39 38.7 °F 28.4 °F 30.09 in WSW 6.8 mph 11.5 mph 66% 0.00 in 0 W/m2
00:44 38.6 °F 28.2 °F 30.09 in WSW 5.3 mph 10.3 mph 66% 0.00 in 0 W/m2
00:49 38.4 °F 28.2 °F 30.09 in WSW 7.9 mph 13.8 mph 66.3% 0.00 in 0 W/m2
00:54 38.3 °F 28 °F 30.09 in WSW 7 mph 13.8 mph 66.2% 0.00 in 0 W/m2
00:59 38.1 °F 27.8 °F 30.09 in WSW 7 mph 12.6 mph 66% 0.00 in 0 W/m2
01:04 37.9 °F 27.6 °F 30.09 in SW 5.8 mph 12.6 mph 66% 0.00 in 0 W/m2
01:09 37.7 °F 27.4 °F 30.09 in SW 6.1 mph 9.2 mph 66% 0.00 in 0 W/m2
01:14 37.5 °F 27.4 °F 30.09 in WSW 6.9 mph 11.5 mph 66.4% 0.00 in 0 W/m2
01:19 37.4 °F 27.5 °F 30.09 in SW 6.4 mph 11.5 mph 67% 0.00 in 0 W/m2
01:24 37.3 °F 27.3 °F 30.09 in SW 5.4 mph 10.4 mph 67% 0.00 in 0 W/m2
01:29 37.1 °F 27.2 °F 30.09 in SW 5 mph 8.1 mph 67% 0.00 in 0 W/m2
01:34 37 °F 27.2 °F 30.08 in SW 6 mph 11.5 mph 67.4% 0.00 in 0 W/m2
01:39 36.8 °F 27.2 °F 30.08 in SW 5.8 mph 11.5 mph 68% 0.00 in 0 W/m2
01:44 36.7 °F 27.1 °F 30.08 in SW 3.8 mph 9.2 mph 68% 0.00 in 0 W/m2
01:49 36.5 °F 27 °F 30.08 in SW 3 mph 5.8 mph 68% 0.00 in 0 W/m2
01:54 36.4 °F 26.9 °F 30.08 in SSW 1.8 mph 5.8 mph 68% 0.00 in 0 W/m2
01:59 36.3 °F 27 °F 30.08 in SSW 2.8 mph 4.6 mph 68.8% 0.00 in 0 W/m2
02:04 36.1 °F 27 °F 30.08 in SSW 2.2 mph 5.8 mph 69% 0.00 in 0 W/m2
02:09 36 °F 26.8 °F 30.08 in South 3.4 mph 6.9 mph 69% 0.00 in 0 W/m2
02:14 35.7 °F 26.9 °F 30.08 in SSW 3.4 mph 6.9 mph 70% 0.00 in 0 W/m2
02:19 35.5 °F 26.7 °F 30.08 in South 4.6 mph 8.1 mph 70% 0.00 in 0 W/m2
02:24 35.3 °F 26.5 °F 30.08 in SSW 4.3 mph 8.1 mph 70% 0.00 in 0 W/m2
02:29 35.1 °F 26.6 °F 30.08 in SSW 4 mph 8.1 mph 70.8% 0.00 in 0 W/m2
02:34 35 °F 26.5 °F 30.08 in SSW 4.7 mph 8.1 mph 71% 0.00 in 0 W/m2
02:39 34.9 °F 26.6 °F 30.08 in SSW 5.9 mph 9.2 mph 71.5% 0.00 in 0 W/m2
02:44 34.8 °F 26.7 °F 30.08 in SSW 5.9 mph 9.2 mph 72% 0.00 in 0 W/m2
02:49 34.8 °F 26.9 °F 30.08 in SSW 4.7 mph 9.2 mph 72.5% 0.00 in 0 W/m2
02:54 34.9 °F 27.1 °F 30.07 in SW 4.3 mph 9.2 mph 73% 0.00 in 0 W/m2
02:59 35 °F 27.2 °F 30.07 in SW 4.2 mph 11.5 mph 73% 0.00 in 0 W/m2
03:04 35.1 °F 27.3 °F 30.07 in SSW 5.3 mph 11.5 mph 73% 0.00 in 0 W/m2
03:09 35.1 °F 27.3 °F 30.07 in SW 5 mph 9.2 mph 72.8% 0.00 in 0 W/m2
03:14 35.2 °F 27.3 °F 30.07 in SSW 6.1 mph 10.3 mph 72.7% 0.00 in 0 W/m2
03:19 35.3 °F 27.5 °F 30.07 in SSW 5.2 mph 10.4 mph 73% 0.00 in 0 W/m2
03:24 35.4 °F 27.6 °F 30.07 in SW 6.4 mph 10.3 mph 73% 0.00 in 0 W/m2
03:29 35.4 °F 27.3 °F 30.07 in SW 8.1 mph 14.9 mph 72% 0.00 in 0 W/m2
03:34 35.5 °F 27.4 °F 30.07 in SSW 7.1 mph 14.9 mph 72% 0.00 in 0 W/m2
03:39 35.6 °F 27.5 °F 30.07 in SW 6.3 mph 12.6 mph 72% 0.00 in 0 W/m2
03:44 35.6 °F 27.5 °F 30.07 in SW 5.5 mph 12.6 mph 72% 0.00 in 0 W/m2
03:49 35.7 °F 27.6 °F 30.07 in SW 7.1 mph 11.5 mph 72% 0.00 in 0 W/m2
03:54 35.7 °F 27.6 °F 30.07 in SSW 6.1 mph 11.5 mph 72% 0.00 in 0 W/m2
03:59 35.7 °F 27.6 °F 30.07 in SW 5.8 mph 10.3 mph 72% 0.00 in 0 W/m2
04:04 35.7 °F 27.6 °F 30.08 in SSW 6.9 mph 11.5 mph 72% 0.00 in 0 W/m2
04:09 35.7 °F 27.6 °F 30.07 in SW 6.6 mph 11.5 mph 72% 0.00 in 0 W/m2
04:14 35.7 °F 27.6 °F 30.07 in SSW 6.3 mph 12.6 mph 72% 0.00 in 0 W/m2
04:19 35.7 °F 27.6 °F 30.07 in SW 6.8 mph 12.6 mph 72% 0.00 in 0 W/m2
04:24 35.6 °F 27.5 °F 30.07 in SSW 5.6 mph 11.5 mph 72% 0.00 in 0 W/m2
04:29 35.6 °F 27.5 °F 30.07 in SSW 6 mph 9.2 mph 72% 0.00 in 0 W/m2
04:34 35.5 °F 27.4 °F 30.07 in SSW 4.9 mph 10.3 mph 72% 0.00 in 0 W/m2
04:39 35.4 °F 27.3 °F 30.08 in SW 5.2 mph 10.4 mph 72% 0.00 in 0 W/m2
04:44 35.4 °F 27.3 °F 30.08 in SSW 5.8 mph 10.4 mph 72% 0.00 in 0 W/m2
04:49 35.3 °F 27.2 °F 30.08 in SSW 5.5 mph 10.4 mph 72% 0.00 in 0 W/m2
04:54 35.2 °F 27.1 °F 30.08 in SW 5.3 mph 11.5 mph 72% 0.00 in 0 W/m2
04:59 35 °F 26.9 °F 30.08 in SSW 5.8 mph 11.5 mph 72% 0.00 in 0 W/m2
05:04 34.9 °F 26.8 °F 30.08 in SSW 6.1 mph 11.5 mph 72% 0.00 in 0 W/m2
05:09 34.7 °F 26.7 °F 30.08 in SSW 5.4 mph 12.6 mph 72.3% 0.00 in 0 W/m2
05:14 34.6 °F 26.8 °F 30.08 in SSW 4.4 mph 12.6 mph 73% 0.00 in 0 W/m2
05:19 34.5 °F 26.7 °F 30.08 in SSW 6.4 mph 11.5 mph 73% 0.00 in 0 W/m2
05:24 34.3 °F 26.6 °F 30.08 in SSW 6.3 mph 11.5 mph 73% 0.00 in 0 W/m2
05:29 34.2 °F 26.6 °F 30.08 in SSW 6.4 mph 10.4 mph 73.6% 0.00 in 0 W/m2
05:34 34 °F 26.6 °F 30.09 in South 4.7 mph 10.4 mph 74% 0.00 in 0 W/m2
05:39 33.9 °F 26.5 °F 30.09 in SSW 5.4 mph 8.1 mph 74% 0.00 in 0 W/m2
05:44 33.7 °F 26.3 °F 30.09 in SSW 5.4 mph 10.3 mph 74% 0.00 in 0 W/m2
05:49 33.6 °F 26.4 °F 30.09 in SSW 5.4 mph 11.5 mph 74.6% 0.00 in 0 W/m2
05:54 33.5 °F 26.5 °F 30.09 in SSW 5.4 mph 11.5 mph 75% 0.00 in 0 W/m2
05:59 33.4 °F 26.4 °F 30.09 in SSW 4.6 mph 10.3 mph 75% 0.00 in 0 W/m2
06:04 33.3 °F 26.3 °F 30.09 in SW 4.5 mph 10.4 mph 75% 0.00 in 0 W/m2
06:09 33.3 °F 26.3 °F 30.09 in SSW 4.7 mph 8.1 mph 75.2% 0.00 in 0 W/m2
06:14 33.2 °F 26.4 °F 30.10 in SSW 5.7 mph 10.3 mph 76% 0.00 in 0 W/m2
06:19 33.1 °F 26.4 °F 30.10 in SSW 5.7 mph 10.4 mph 76% 0.00 in 0 W/m2
06:24 33 °F 26.3 °F 30.10 in South 5.9 mph 9.2 mph 76% 0.00 in 0 W/m2
06:29 32.9 °F 26.2 °F 30.10 in South 5.3 mph 9.2 mph 76% 0.00 in 0 W/m2
06:34 32.8 °F 26.1 °F 30.10 in South 5.1 mph 8.1 mph 76% 0.00 in 0 W/m2
06:39 32.7 °F 26 °F 30.10 in South 5.4 mph 10.3 mph 76% 0.00 in 0 W/m2
06:44 32.6 °F 25.9 °F 30.10 in South 4.6 mph 10.4 mph 76.1% 0.00 in 0 W/m2
06:49 32.6 °F 26.2 °F 30.10 in South 5.2 mph 8.1 mph 77% 0.00 in 0 W/m2
06:54 32.5 °F 26.1 °F 30.10 in SSW 4.7 mph 8.1 mph 77% 0.00 in 0 W/m2
06:59 32.4 °F 26 °F 30.10 in SSW 5.7 mph 9.2 mph 77% 0.00 in 5 W/m2
07:04 32.3 °F 25.9 °F 30.10 in South 5.7 mph 9.2 mph 77% 0.00 in 7 W/m2
07:09 32.2 °F 25.9 °F 30.10 in SSW 6.7 mph 11.5 mph 77% 0.00 in 9 W/m2
07:14 32.2 °F 25.9 °F 30.10 in South 4.7 mph 11.5 mph 77.2% 0.00 in 12 W/m2
07:19 32.2 °F 26.1 °F 30.10 in South 5.3 mph 8.1 mph 78% 0.00 in 14 W/m2
07:24 32.2 °F 26.1 °F 30.10 in South 5.8 mph 10.3 mph 78% 0.00 in 18 W/m2
07:29 32.1 °F 26.1 °F 30.10 in South 5.2 mph 10.4 mph 78% 0.00 in 19 W/m2
07:34 32.2 °F 26.1 °F 30.10 in SSW 5.9 mph 10.4 mph 78% 0.00 in 21 W/m2
07:39 32.2 °F 26.1 °F 30.10 in South 6.3 mph 12.6 mph 78% 0.00 in 23 W/m2
07:44 32.3 °F 26.2 °F 30.10 in SSW 5.7 mph 12.6 mph 78% 0.00 in 25 W/m2
07:49 32.4 °F 26.4 °F 30.10 in SSW 6.1 mph 11.5 mph 78% 0.00 in 26 W/m2
07:54 32.6 °F 26.6 °F 30.10 in SSW 6.3 mph 11.5 mph 78.3% 0.00 in 28 W/m2
07:59 32.8 °F 26.7 °F 30.10 in SSW 6.9 mph 11.5 mph 78% 0.00 in 30 W/m2
08:04 33.1 °F 27 °F 30.10 in SSW 8 mph 14.9 mph 78% 0.00 in 33 W/m2
08:09 33.4 °F 27.1 °F 30.10 in SSW 7.3 mph 14.9 mph 77.4% 0.00 in 49 W/m2
08:14 33.7 °F 27.2 °F 30.10 in SSW 7.5 mph 12.6 mph 77% 0.00 in 98 W/m2
08:19 34 °F 27.4 °F 30.10 in SSW 8.3 mph 16.1 mph 76.5% 0.00 in 105 W/m2
08:24 34.4 °F 27.5 °F 30.10 in SSW 8.1 mph 16.1 mph 75.5% 0.00 in 128 W/m2
08:29 34.8 °F 27.6 °F 30.10 in SSW 8.6 mph 20.7 mph 74.6% 0.00 in 216 W/m2
08:34 35.1 °F 27.7 °F 30.10 in SSW 6.9 mph 20.7 mph 74% 0.00 in 216 W/m2
08:39 35.5 °F 27.7 °F 30.10 in SSW 9.1 mph 14.9 mph 73% 0.00 in 178 W/m2
08:44 35.9 °F 27.6 °F 30.10 in SSW 6.6 mph 16.1 mph 71.7% 0.00 in 188 W/m2
08:49 36.2 °F 27.7 °F 30.10 in South 7.8 mph 16.1 mph 71% 0.00 in 193 W/m2
08:54 36.5 °F 27.9 °F 30.10 in SSW 7.2 mph 17.2 mph 70.8% 0.00 in 137 W/m2
08:59 36.8 °F 28.1 °F 30.10 in South 9.2 mph 17.2 mph 70.3% 0.00 in 281 W/m2
09:04 37.1 °F 28.3 °F 30.10 in SSW 7.1 mph 14.9 mph 70.2% 0.00 in 283 W/m2
09:09 37.4 °F 28.5 °F 30.10 in SSW 8.1 mph 19.5 mph 70% 0.00 in 341 W/m2
09:14 37.8 °F 28.4 °F 30.10 in SSW 11.8 mph 20.7 mph 68.7% 0.00 in 357 W/m2
09:19 38.1 °F 28.3 °F 30.10 in SSW 10.8 mph 21.9 mph 67.4% 0.00 in 369 W/m2
09:24 38.8 °F 28.1 °F 30.10 in SW 11.9 mph 21.9 mph 65% 0.00 in 383 W/m2
09:29 39.8 °F 28.2 °F 30.10 in SSW 9 mph 21.9 mph 62.9% 0.00 in 397 W/m2
09:34 40 °F 28.1 °F 30.10 in SW 9.6 mph 18.4 mph 62.2% 0.00 in 408 W/m2
09:39 40.4 °F 28.5 °F 30.10 in SSW 12.4 mph 23 mph 62.2% 0.00 in 422 W/m2
09:44 40.8 °F 28.3 °F 30.10 in SSW 12.2 mph 23 mph 60.8% 0.00 in 436 W/m2
09:49 41.2 °F 28.1 °F 30.10 in SW 12.6 mph 23 mph 59.2% 0.00 in 439 W/m2
09:54 41.8 °F 27.7 °F 30.10 in SW 15.1 mph 26.4 mph 57% 0.00 in 149 W/m2
09:59 41.8 °F 26.8 °F 30.10 in SW 13.5 mph 26.5 mph 54.8% 0.00 in 260 W/m2
10:04 42.1 °F 27.4 °F 30.10 in SSW 12.9 mph 20.7 mph 55.6% 0.00 in 139 W/m2
10:09 42.3 °F 27.3 °F 30.10 in SW 13 mph 20.7 mph 55.1% 0.00 in 70 W/m2
10:14 42.4 °F 27.3 °F 30.09 in SW 12.9 mph 23 mph 54.8% 0.00 in 54 W/m2
10:19 42.4 °F 27.4 °F 30.10 in SW 11.3 mph 23 mph 55% 0.00 in 58 W/m2
10:24 42.6 °F 28.1 °F 30.10 in SSW 11.3 mph 20.7 mph 56.3% 0.00 in 128 W/m2
10:29 42.9 °F 28.4 °F 30.09 in SSW 12.6 mph 19.5 mph 56.2% 0.00 in 332 W/m2
10:34 43.1 °F 28.6 °F 30.09 in SSW 10.4 mph 19.5 mph 56.3% 0.00 in 91 W/m2
10:39 43.3 °F 27.4 °F 30.09 in SSW 11.1 mph 20.7 mph 53.1% 0.00 in 88 W/m2
10:44 43.6 °F 27.3 °F 30.09 in SW 14.4 mph 21.9 mph 52.4% 0.00 in 218 W/m2
10:49 44 °F 28.4 °F 30.09 in SW 10.2 mph 21.9 mph 54.1% 0.00 in 218 W/m2
10:54 44.3 °F 28.4 °F 30.09 in SSW 11.8 mph 23 mph 53.3% 0.00 in 220 W/m2
10:59 44.5 °F 28 °F 30.09 in SW 14.8 mph 23 mph 52.2% 0.00 in 163 W/m2
11:04 44.6 °F 27.5 °F 30.08 in SW 13.5 mph 23 mph 50.9% 0.00 in 58 W/m2
11:09 44.8 °F 27.5 °F 30.09 in SW 13.5 mph 21.9 mph 50.4% 0.00 in 130 W/m2
11:14 45.1 °F 27.5 °F 30.09 in SW 15.1 mph 27.6 mph 49.8% 0.00 in 130 W/m2
11:19 45.2 °F 27.5 °F 30.08 in SW 14.2 mph 27.6 mph 49.7% 0.00 in 74 W/m2
11:24 45.2 °F 27.1 °F 30.08 in SW 13.4 mph 23 mph 48.7% 0.00 in 60 W/m2
11:29 45.5 °F 28.1 °F 30.08 in SW 11.3 mph 21.9 mph 50.2% 0.00 in 200 W/m2
11:34 46.2 °F 29.2 °F 30.08 in SW 12.8 mph 23 mph 51.1% 0.00 in 207 W/m2
11:39 46.5 °F 27 °F 30.08 in SW 17.1 mph 29.9 mph 46.4% 0.00 in 432 W/m2
11:44 46.4 °F 27.5 °F 30.08 in SW 15.8 mph 29.9 mph 47.4% 0.00 in 642 W/m2
11:49 46.6 °F 26.9 °F 30.08 in SW 16.5 mph 26.5 mph 45.8% 0.00 in 645 W/m2
11:54 46.7 °F 27.2 °F 30.08 in SW 12.5 mph 24.1 mph 46.4% 0.00 in 650 W/m2
11:59 47.5 °F 27.5 °F 30.08 in SW 15.4 mph 23 mph 45.6% 0.00 in 654 W/m2
12:04 47.6 °F 27 °F 30.08 in WSW 14.3 mph 23 mph 44.6% 0.00 in 659 W/m2
12:09 48 °F 27.4 °F 30.07 in SSW 14.9 mph 24.1 mph 44.4% 0.00 in 661 W/m2
12:14 48.1 °F 27.1 °F 30.07 in SSW 13.7 mph 25.3 mph 43.8% 0.00 in 664 W/m2
12:19 48 °F 26.6 °F 30.07 in SSW 13.3 mph 25.3 mph 43.1% 0.00 in 666 W/m2
12:24 48.4 °F 27.3 °F 30.06 in SSW 12.7 mph 24.1 mph 43.6% 0.00 in 668 W/m2
12:29 48.6 °F 27.5 °F 30.06 in SSW 12.6 mph 24.1 mph 43.7% 0.00 in 670 W/m2
12:34 49.1 °F 27.6 °F 30.05 in SW 15 mph 24.1 mph 43% 0.00 in 670 W/m2
12:39 49.1 °F 27.8 °F 30.05 in SSW 11.4 mph 24.1 mph 43.3% 0.00 in 671 W/m2
12:44 49.4 °F 27.7 °F 30.05 in SW 12.2 mph 26.4 mph 42.8% 0.00 in 671 W/m2
12:49 49.8 °F 28.8 °F 30.04 in SW 12.2 mph 27.6 mph 44% 0.00 in 671 W/m2
12:54 50.2 °F 27.1 °F 30.04 in SSW 15.6 mph 27.6 mph 40.5% 0.00 in 671 W/m2
12:59 50 °F 27.4 °F 30.04 in SW 12.5 mph 24.1 mph 41.3% 0.00 in 670 W/m2
13:04 50.3 °F 27.3 °F 30.04 in SSW 14.7 mph 21.9 mph 40.7% 0.00 in 666 W/m2
13:09 50.4 °F 27.7 °F 30.03 in SW 14.7 mph 24.1 mph 41.2% 0.00 in 666 W/m2
13:14 50.7 °F 27.2 °F 30.03 in SW 14.8 mph 25.3 mph 40% 0.00 in 661 W/m2
13:19 51.1 °F 28.6 °F 30.03 in SSW 11.6 mph 25.3 mph 41.5% 0.00 in 657 W/m2
13:24 51.4 °F 28.4 °F 30.02 in South 14.3 mph 24.1 mph 40.8% 0.00 in 654 W/m2
13:29 51.4 °F 29.1 °F 30.02 in SSW 9.4 mph 23 mph 42% 0.00 in 649 W/m2
13:34 51.6 °F 28.6 °F 30.02 in SW 14.2 mph 23 mph 40.8% 0.00 in 647 W/m2
13:39 52 °F 28.6 °F 30.01 in South 13.4 mph 24.1 mph 40.3% 0.00 in 640 W/m2
13:44 52.3 °F 29.5 °F 30.01 in South 12.7 mph 24.1 mph 41.4% 0.00 in 633 W/m2
13:49 52.3 °F 29.4 °F 30.01 in SSW 12.2 mph 25.3 mph 41.2% 0.00 in 626 W/m2
13:54 52.4 °F 29.2 °F 30.01 in SSW 11.7 mph 25.3 mph 40.7% 0.00 in 617 W/m2
13:59 52.7 °F 29.6 °F 30.00 in SSW 11.3 mph 24.1 mph 40.8% 0.00 in 612 W/m2
14:04 52.8 °F 29.4 °F 30.00 in SSW 13.8 mph 25.3 mph 40.4% 0.00 in 603 W/m2
14:09 52.7 °F 29.1 °F 30.00 in SSW 11.9 mph 25.3 mph 40% 0.00 in 596 W/m2
14:14 52.7 °F 28.5 °F 30.00 in SSW 12.8 mph 24.1 mph 39.2% 0.00 in 592 W/m2
14:19 53.2 °F 28.5 °F 29.99 in South 14.2 mph 24.1 mph 38.5% 0.00 in 584 W/m2
14:24 53.2 °F 29 °F 29.98 in South 13.2 mph 24.1 mph 39.1% 0.00 in 575 W/m2
14:29 53.6 °F 29.4 °F 29.98 in South 16.4 mph 27.6 mph 39.2% 0.00 in 568 W/m2
14:34 53.5 °F 28.2 °F 29.98 in SSW 12.4 mph 27.6 mph 37.6% 0.00 in 561 W/m2
14:39 53.7 °F 29 °F 29.97 in South 12.4 mph 24.1 mph 38.5% 0.00 in 550 W/m2
14:44 53.9 °F 29.7 °F 29.97 in SSW 12.5 mph 24.1 mph 39.3% 0.00 in 543 W/m2
14:49 54.1 °F 29.7 °F 29.97 in South 15.4 mph 28.8 mph 39% 0.00 in 531 W/m2
14:54 54.1 °F 30.2 °F 29.96 in South 13.3 mph 28.8 mph 39.8% 0.00 in 522 W/m2
14:59 54.1 °F 29.9 °F 29.96 in South 12 mph 21.9 mph 39.3% 0.00 in 399 W/m2
15:04 54 °F 29.5 °F 29.96 in South 16.8 mph 26.4 mph 38.8% 0.00 in 304 W/m2
15:09 53.7 °F 29.1 °F 29.95 in South 14.3 mph 26.5 mph 38.6% 0.00 in 466 W/m2
15:14 53.7 °F 28.3 °F 29.95 in South 17.4 mph 25.3 mph 37.4% 0.00 in 466 W/m2
15:19 53.7 °F 28.5 °F 29.95 in South 12.6 mph 25.3 mph 37.8% 0.00 in 260 W/m2
15:24 53.8 °F 28.7 °F 29.94 in SSW 14.8 mph 25.3 mph 38% 0.00 in 174 W/m2
15:29 53.9 °F 29.2 °F 29.94 in South 13.6 mph 24.1 mph 38.5% 0.00 in 174 W/m2
15:34 53.8 °F 28.5 °F 29.93 in South 15.3 mph 25.3 mph 37.5% 0.00 in 84 W/m2
15:39 53.8 °F 29 °F 29.93 in South 14.1 mph 25.3 mph 38.4% 0.00 in 84 W/m2
15:44 54 °F 29.7 °F 29.93 in South 12 mph 24.1 mph 39% 0.00 in 93 W/m2
15:49 54.2 °F 29 °F 29.93 in South 12.7 mph 24.1 mph 37.8% 0.00 in 142 W/m2
15:54 54.2 °F 29.1 °F 29.93 in SSW 13.8 mph 24.1 mph 38% 0.00 in 151 W/m2
15:59 54.2 °F 28.6 °F 29.93 in SSW 15.3 mph 25.3 mph 37.2% 0.00 in 199 W/m2
16:04 54.3 °F 28.7 °F 29.93 in SSW 12.5 mph 25.3 mph 37.1% 0.00 in 162 W/m2
16:09 54.4 °F 28.8 °F 29.93 in South 13.9 mph 25.3 mph 37.2% 0.00 in 193 W/m2
16:14 54.5 °F 29.1 °F 29.93 in SSW 12.7 mph 25.3 mph 37.4% 0.00 in 183 W/m2
16:19 54.5 °F 28.9 °F 29.93 in SSW 15.1 mph 25.3 mph 37.1% 0.00 in 49 W/m2
16:24 54.5 °F 29 °F 29.92 in SSW 11.8 mph 25.3 mph 37.3% 0.00 in 113 W/m2
16:29 54.5 °F 29.1 °F 29.92 in South 12.4 mph 24.1 mph 37.4% 0.00 in 58 W/m2
16:34 54.5 °F 29.7 °F 29.92 in South 14.4 mph 24.1 mph 38.5% 0.00 in 91 W/m2
16:39 54.5 °F 30.3 °F 29.92 in South 13.3 mph 24.1 mph 39.3% 0.00 in 91 W/m2
16:44 54.5 °F 29.6 °F 29.92 in South 13.2 mph 24.1 mph 38.2% 0.00 in 118 W/m2
16:49 54.6 °F 30.1 °F 29.92 in SSW 12 mph 23 mph 38.9% 0.00 in 167 W/m2
16:54 54.8 °F 29.2 °F 29.92 in South 15.5 mph 26.4 mph 37.3% 0.00 in 183 W/m2
16:59 54.7 °F 28.8 °F 29.91 in South 13.7 mph 35.6 mph 36.7% 0.00 in 171 W/m2
17:04 54.6 °F 29.2 °F 29.91 in South 12.8 mph 35.7 mph 37.5% 0.00 in 111 W/m2
17:09 54.6 °F 29.4 °F 29.91 in South 13.4 mph 25.3 mph 37.8% 0.00 in 67 W/m2
17:14 54.5 °F 28.9 °F 29.91 in South 13.8 mph 25.3 mph 37.3% 0.00 in 104 W/m2
17:19 54.3 °F 29.1 °F 29.91 in South 15 mph 26.4 mph 37.7% 0.00 in 102 W/m2
17:24 54.2 °F 29 °F 29.90 in South 14.4 mph 26.5 mph 37.8% 0.00 in 97 W/m2
17:29 54 °F 29.3 °F 29.90 in South 13.6 mph 23 mph 38.4% 0.00 in 65 W/m2
17:34 53.7 °F 29.9 °F 29.90 in South 13.2 mph 23 mph 39.9% 0.00 in 30 W/m2
17:39 53.5 °F 30.3 °F 29.90 in South 12.2 mph 24.1 mph 40.9% 0.00 in 28 W/m2
17:42 53.4 °F 29.9 °F 29.90 in South 8.3 mph 24.1 mph 40.3% 0.00 in 25 W/m2
17:45 53.3 °F 30.2 °F 29.89 in SSE 10.3 mph 21.9 mph 41% 0.00 in 24 W/m2
17:54 52.9 °F 30 °F 29.90 in South 12.1 mph 17.2 mph 41.2% 0.00 in 18 W/m2
17:59 52.8 °F 30.3 °F 29.90 in South 12 mph 20.7 mph 42% 0.00 in 16 W/m2
18:04 52.6 °F 30.4 °F 29.90 in South 9.5 mph 20.7 mph 42.4% 0.00 in 12 W/m2
18:09 52.3 °F 30.4 °F 29.89 in South 10.2 mph 19.5 mph 42.9% 0.00 in 11 W/m2
18:14 52.2 °F 30.7 °F 29.89 in SSE 9.9 mph 24.1 mph 43.6% 0.00 in 7 W/m2
18:19 52 °F 30.6 °F 29.90 in South 10.9 mph 24.1 mph 43.8% 0.00 in 0 W/m2
18:24 51.8 °F 31 °F 29.90 in South 10.3 mph 19.5 mph 44.6% 0.00 in 0 W/m2
18:29 51.6 °F 31.3 °F 29.89 in South 11 mph 20.7 mph 45.6% 0.00 in 0 W/m2
18:34 51.4 °F 31.3 °F 29.89 in South 9.7 mph 20.7 mph 45.9% 0.00 in 0 W/m2
18:39 51.2 °F 31.6 °F 29.89 in South 7.8 mph 17.2 mph 46.8% 0.00 in 0 W/m2
18:44 51 °F 31.5 °F 29.89 in South 8.1 mph 18.4 mph 47% 0.00 in 0 W/m2
18:49 50.7 °F 31.7 °F 29.89 in South 9.9 mph 23 mph 47.9% 0.00 in 0 W/m2
18:54 50.5 °F 31.6 °F 29.89 in South 7.9 mph 23 mph 48.1% 0.00 in 0 W/m2
18:59 50.4 °F 32 °F 29.89 in South 11.2 mph 20.7 mph 49% 0.00 in 0 W/m2
19:04 50.2 °F 32.2 °F 29.90 in South 9.7 mph 20.7 mph 49.7% 0.00 in 0 W/m2
19:09 50 °F 32.2 °F 29.90 in South 7.9 mph 18.4 mph 50.2% 0.00 in 0 W/m2
19:14 49.7 °F 32.3 °F 29.90 in South 10.2 mph 20.7 mph 51% 0.00 in 0 W/m2
19:19 49.7 °F 32.3 °F 29.90 in South 8.3 mph 20.7 mph 50.8% 0.00 in 0 W/m2
19:24 49.7 °F 32.3 °F 29.90 in South 9 mph 16.1 mph 51% 0.00 in 0 W/m2
19:29 49.7 °F 32.5 °F 29.90 in South 9.7 mph 19.5 mph 51.5% 0.00 in 0 W/m2
19:34 49.5 °F 32.4 °F 29.90 in South 12.3 mph 19.5 mph 51.5% 0.00 in 0 W/m2
19:39 49.5 °F 32.5 °F 29.90 in South 8.8 mph 19.5 mph 51.7% 0.00 in 0 W/m2
19:44 49.4 °F 32.7 °F 29.90 in South 8.5 mph 19.5 mph 52.4% 0.00 in 0 W/m2
19:49 49.1 °F 32.6 °F 29.90 in South 9.6 mph 19.5 mph 52.8% 0.00 in 0 W/m2
19:54 49.1 °F 32.4 °F 29.90 in South 10.5 mph 19.5 mph 52.2% 0.00 in 0 W/m2
19:59 49.2 °F 32.7 °F 29.90 in South 9.6 mph 17.2 mph 52.8% 0.00 in 0 W/m2
20:04 49 °F 32.6 °F 29.90 in South 10.4 mph 19.5 mph 53% 0.00 in 0 W/m2
20:09 49 °F 32.8 °F 29.90 in South 11.1 mph 24.1 mph 53.5% 0.00 in 0 W/m2
20:14 48.9 °F 32.7 °F 29.90 in South 10.8 mph 24.1 mph 53.4% 0.00 in 0 W/m2
20:19 48.9 °F 32.7 °F 29.90 in South 12.7 mph 20.7 mph 53.3% 0.00 in 0 W/m2
20:24 49 °F 32.6 °F 29.89 in South 11.7 mph 23 mph 53% 0.00 in 0 W/m2
20:29 49.1 °F 32.5 °F 29.90 in South 15.1 mph 25.3 mph 52.5% 0.00 in 0 W/m2
20:34 49.3 °F 32.2 °F 29.90 in South 11.3 mph 25.3 mph 51.5% 0.00 in 0 W/m2
20:39 49.3 °F 32.4 °F 29.90 in South 13.8 mph 31 mph 52% 0.00 in 0 W/m2
20:44 49.2 °F 32.4 °F 29.90 in South 14.4 mph 31 mph 52% 0.00 in 0 W/m2
20:49 49.3 °F 32.3 °F 29.90 in South 15.1 mph 28.8 mph 51.6% 0.00 in 0 W/m2
20:54 49.5 °F 32.3 °F 29.90 in South 14.6 mph 28.8 mph 51.4% 0.00 in 0 W/m2
20:59 49.2 °F 32.4 °F 29.90 in South 16 mph 26.4 mph 52% 0.00 in 0 W/m2
21:04 49.2 °F 32.4 °F 29.89 in South 14.2 mph 26.4 mph 52% 0.00 in 0 W/m2
21:09 49.1 °F 32.5 °F 29.89 in South 14.9 mph 26.4 mph 52.4% 0.00 in 0 W/m2
21:14 49.1 °F 32.5 °F 29.89 in South 15.6 mph 26.4 mph 52.5% 0.00 in 0 W/m2
21:19 49.1 °F 32.6 °F 29.89 in South 14.6 mph 27.6 mph 52.8% 0.00 in 0 W/m2
21:24 49 °F 32.6 °F 29.89 in South 14 mph 27.6 mph 53% 0.00 in 0 W/m2
21:29 48.9 °F 32.5 °F 29.89 in South 15.3 mph 26.4 mph 53% 0.00 in 0 W/m2
21:34 49 °F 32.6 °F 29.89 in South 12.7 mph 26.4 mph 53% 0.00 in 0 W/m2
21:39 48.8 °F 32.8 °F 29.89 in South 15.2 mph 24.1 mph 53.8% 0.00 in 0 W/m2
21:44 48.7 °F 32.9 °F 29.89 in South 13.3 mph 24.1 mph 54.2% 0.00 in 0 W/m2
21:49 48.6 °F 33.2 °F 29.89 in South 13.6 mph 29.9 mph 55% 0.00 in 0 W/m2
21:54 48.6 °F 33.2 °F 29.89 in South 14.2 mph 29.9 mph 55% 0.00 in 0 W/m2
21:59 48.6 °F 33.2 °F 29.89 in South 17.2 mph 27.6 mph 55% 0.00 in 0 W/m2
22:04 48.6 °F 33.1 °F 29.89 in South 14.9 mph 27.6 mph 55% 0.00 in 0 W/m2
22:09 48.6 °F 33.2 °F 29.89 in South 16.1 mph 31 mph 55% 0.00 in 0 W/m2
22:14 48.7 °F 33.3 °F 29.88 in South 14.3 mph 31 mph 55% 0.00 in 0 W/m2
22:19 48.6 °F 33.4 °F 29.89 in South 14.3 mph 27.6 mph 55.5% 0.00 in 0 W/m2
22:24 48.6 °F 33.5 °F 29.88 in South 17.1 mph 34.5 mph 55.7% 0.00 in 0 W/m2
22:29 48.6 °F 33.5 °F 29.88 in South 14.7 mph 34.5 mph 55.7% 0.00 in 0 W/m2
22:34 48.5 °F 33.6 °F 29.88 in South 16.6 mph 26.4 mph 56% 0.00 in 0 W/m2
22:39 48.5 °F 33.7 °F 29.89 in South 13.8 mph 26.4 mph 56.3% 0.00 in 0 W/m2
22:44 48.4 °F 33.7 °F 29.89 in South 13.9 mph 25.3 mph 56.7% 0.00 in 0 W/m2
22:49 48.4 °F 33.9 °F 29.88 in South 13.9 mph 28.8 mph 57% 0.00 in 0 W/m2
22:54 48.4 °F 33.9 °F 29.88 in South 14.6 mph 28.8 mph 57% 0.00 in 0 W/m2
22:59 48.3 °F 33.8 °F 29.88 in South 15.6 mph 27.6 mph 57% 0.00 in 0 W/m2
23:04 48.3 °F 33.8 °F 29.88 in South 13.1 mph 27.6 mph 57.1% 0.00 in 0 W/m2
23:09 48.3 °F 34 °F 29.88 in South 14.3 mph 26.4 mph 57.4% 0.00 in 0 W/m2
23:14 48.4 °F 33.9 °F 29.88 in South 15.6 mph 31 mph 57.2% 0.00 in 0 W/m2
23:19 48.4 °F 33.9 °F 29.88 in South 13.5 mph 31 mph 57% 0.00 in 0 W/m2
23:24 48.4 °F 34.3 °F 29.88 in South 13.4 mph 26.4 mph 58% 0.00 in 0 W/m2
23:29 48.3 °F 34.2 °F 29.88 in South 12.8 mph 26.4 mph 58% 0.00 in 0 W/m2
23:34 48.4 °F 34.3 °F 29.88 in South 15.3 mph 23 mph 58% 0.00 in 0 W/m2
23:39 48.4 °F 34.3 °F 29.88 in South 13.1 mph 23 mph 58% 0.00 in 0 W/m2
23:44 48.3 °F 34.3 °F 29.88 in South 12.9 mph 23 mph 58% 0.00 in 0 W/m2
23:49 48.2 °F 34.2 °F 29.88 in South 15.2 mph 24.1 mph 58.2% 0.00 in 0 W/m2
23:54 48.3 °F 34.2 °F 29.88 in South 12.9 mph 24.1 mph 58% 0.00 in 0 W/m2
23:59 48.3 °F 34.3 °F 29.88 in South 13.1 mph 24.1 mph 58.2% 0.00 in 0 W/m2
Peotne Weather
Compliments of Weather Underground - 4 mb